Time;durP1;ratioP1;P1;durP2;ratioP2;P2;SDS_P1;SDS_P2;PMS_P1;PMS_P2;Temp;Humidity;BMP_temperature;BMP_pressure;BME280_temperature;BME280_humidity;BME280_pressure;Samples;Min_cycle;Max_cycle;Signal;HPM_P1;HPM_P2
2021/01/01 00:02:23;;;;;;;4.50;4.10;;;;;;;18.32;46.67;99923.31;5010980;28;20236;-67
2021/01/01 00:04:49;;;;;;;4.87;4.47;;;;;;;18.31;46.31;99932.47;5011059;28;20194;-67
2021/01/01 00:07:15;;;;;;;5.17;4.77;;;;;;;18.31;46.21;99924.34;4994134;28;20232;-67
2021/01/01 00:09:41;;;;;;;4.90;4.50;;;;;;;18.31;46.60;99929.78;5011275;28;20281;-68
2021/01/01 00:12:07;;;;;;;4.87;4.47;;;;;;;18.30;46.76;99938.94;4993842;28;20193;-66
2021/01/01 00:14:33;;;;;;;4.67;4.27;;;;;;;18.32;46.27;99942.28;4994293;28;20296;-68
2021/01/01 00:17:00;;;;;;;4.57;4.17;;;;;;;18.33;46.41;99943.97;4994006;28;20205;-66
2021/01/01 00:19:26;;;;;;;4.80;4.40;;;;;;;18.31;46.50;99941.44;5010987;28;20193;-67
2021/01/01 00:21:52;;;;;;;4.93;4.53;;;;;;;18.30;46.26;99944.34;4977171;28;20194;-67
2021/01/01 00:24:18;;;;;;;4.90;4.50;;;;;;;18.27;46.70;99947.44;5010871;28;20554;-68
2021/01/01 00:26:50;;;;;;;4.97;4.57;;;;;;;18.25;46.78;99941.34;5011839;28;20209;-65
2021/01/01 00:29:16;;;;;;;5.10;4.70;;;;;;;18.23;46.80;99940.69;4997390;28;20209;-66
2021/01/01 00:31:42;;;;;;;4.90;4.50;;;;;;;18.18;46.31;99951.22;5014853;28;20182;-68
2021/01/01 00:34:08;;;;;;;5.00;4.60;;;;;;;18.16;46.43;99942.44;5014249;28;20216;-67
2021/01/01 00:36:34;;;;;;;5.30;4.90;;;;;;;18.12;46.73;99949.25;4997097;28;20218;-67
2021/01/01 00:39:00;;;;;;;4.90;4.50;;;;;;;18.07;46.51;99945.25;5013955;28;20197;-64
2021/01/01 00:41:30;;;;;;;5.10;4.70;;;;;;;18.03;46.45;99948.50;5014561;28;20553;-65
2021/01/01 00:43:57;;;;;;;4.87;4.47;;;;;;;17.99;46.41;99944.47;5014617;28;20186;-63
2021/01/01 00:46:24;;;;;;;5.47;5.07;;;;;;;17.95;46.33;99943.13;4997151;28;20224;-63
2021/01/01 00:48:50;;;;;;;5.20;4.80;;;;;;;17.96;47.01;99948.38;4981046;28;20202;-67
2021/01/01 00:51:27;;;;;;;5.20;4.80;;;;;;;17.98;46.53;99942.78;4980325;28;20193;-65
2021/01/01 00:53:53;;;;;;;5.37;4.97;;;;;;;18.03;47.07;99943.94;4989597;28;20197;-65
2021/01/01 00:56:23;;;;;;;5.17;4.77;;;;;;;18.13;46.34;99949.06;5013924;28;20653;-66
2021/01/01 00:58:50;;;;;;;5.37;4.90;;;;;;;18.23;46.45;99943.41;4965209;28;20193;-66
2021/01/01 01:01:17;;;;;;;5.17;4.77;;;;;;;18.33;46.82;99946.69;4997024;28;20704;-66
2021/01/01 01:03:43;;;;;;;5.50;5.00;;;;;;;18.42;46.60;99942.84;4980986;28;20186;-64
2021/01/01 01:06:09;;;;;;;5.07;4.67;;;;;;;18.51;46.37;99947.16;5013927;28;20450;-64
2021/01/01 01:08:35;;;;;;;5.20;4.80;;;;;;;18.61;46.50;99947.72;4996645;28;20242;-66
2021/01/01 01:11:02;;;;;;;5.10;4.70;;;;;;;18.70;46.56;99949.34;5014181;28;20185;-65
2021/01/01 01:13:28;;;;;;;5.70;5.20;;;;;;;18.80;46.39;99950.91;5014053;28;20228;-67
2021/01/01 01:15:54;;;;;;;4.90;4.50;;;;;;;18.87;46.15;99947.25;5014003;28;20304;-67
2021/01/01 01:18:20;;;;;;;5.40;5.00;;;;;;;18.94;46.14;99955.50;5014024;28;20197;-66
2021/01/01 01:20:46;;;;;;;5.10;4.70;;;;;;;18.99;45.91;99953.91;5013311;28;20226;-64
2021/01/01 01:23:12;;;;;;;5.10;4.70;;;;;;;19.05;45.99;99959.59;5013609;28;20185;-64
2021/01/01 01:25:38;;;;;;;5.10;4.70;;;;;;;19.05;45.89;99963.13;5013857;28;20237;-68
2021/01/01 01:28:04;;;;;;;5.23;4.83;;;;;;;19.08;45.77;99961.91;5013673;28;20252;-65
2021/01/01 01:30:31;;;;;;;5.27;4.87;;;;;;;19.07;45.55;99968.38;4980339;28;20688;-64
2021/01/01 01:32:57;;;;;;;5.27;4.87;;;;;;;19.06;45.80;99962.09;4980245;28;20676;-65
2021/01/01 01:35:23;;;;;;;4.83;4.47;;;;;;;19.04;45.56;99969.59;4996209;28;20203;-65
2021/01/01 01:37:49;;;;;;;5.13;4.73;;;;;;;18.99;45.93;99972.03;4995635;28;20260;-64
2021/01/01 01:40:15;;;;;;;5.23;4.83;;;;;;;18.96;45.57;99973.25;4979262;28;20864;-66
2021/01/01 01:42:41;;;;;;;5.23;4.83;;;;;;;18.92;45.83;99976.50;4996293;28;20265;-66
2021/01/01 01:45:07;;;;;;;5.20;4.80;;;;;;;18.89;45.84;99976.91;4979903;28;20190;-66
2021/01/01 01:47:34;;;;;;;5.37;4.97;;;;;;;18.83;45.91;99980.38;4996363;28;20185;-66
2021/01/01 01:50:00;;;;;;;5.40;5.00;;;;;;;18.74;46.10;99978.78;4996015;28;20204;-68
2021/01/01 01:52:26;;;;;;;5.50;5.00;;;;;;;18.63;45.82;99983.63;4996286;28;20205;-64
2021/01/01 01:54:53;;;;;;;5.10;4.70;;;;;;;18.53;45.98;99984.91;4960607;28;20191;-66
2021/01/01 01:57:19;;;;;;;5.87;5.37;;;;;;;18.45;46.31;99988.53;4993997;28;20206;-66
2021/01/01 01:59:45;;;;;;;5.07;4.67;;;;;;;18.37;46.13;99988.63;4961137;28;20657;-66
2021/01/01 02:02:11;;;;;;;5.40;5.00;;;;;;;18.31;46.37;99989.38;4961063;28;20197;-64
2021/01/01 02:04:39;;;;;;;5.47;5.00;;;;;;;18.23;46.60;99997.59;4960375;28;20709;-68
2021/01/01 02:07:05;;;;;;;5.80;5.30;;;;;;;18.19;46.60;99990.81;5009892;28;20223;-67
2021/01/01 02:09:31;;;;;;;5.63;5.23;;;;;;;18.19;46.47;99991.66;4994918;28;20188;-67
2021/01/01 02:11:57;;;;;;;5.40;5.00;;;;;;;18.22;46.18;99990.47;4976214;28;20638;-67
2021/01/01 02:14:23;;;;;;;5.20;4.80;;;;;;;18.24;46.11;99994.69;4993168;28;20186;-63
2021/01/01 02:16:49;;;;;;;5.67;5.17;;;;;;;18.27;46.47;99996.19;4976071;28;20238;-65
2021/01/01 02:19:15;;;;;;;5.60;5.20;;;;;;;18.26;46.21;99995.34;4992228;28;20200;-66
2021/01/01 02:21:42;;;;;;;5.27;4.87;;;;;;;18.29;46.50;99996.84;5010177;28;20637;-66
2021/01/01 02:24:10;;;;;;;5.50;5.07;;;;;;;18.28;46.50;100004.13;5012694;28;20251;-65
2021/01/01 02:26:37;;;;;;;5.57;5.07;;;;;;;18.29;46.53;100004.97;4962831;28;20224;-65
2021/01/01 02:29:03;;;;;;;5.27;4.87;;;;;;;18.29;46.17;100007.69;4995534;28;20220;-67
2021/01/01 02:31:29;;;;;;;5.70;5.20;;;;;;;18.30;46.48;100015.63;5012202;28;20621;-67
2021/01/01 02:33:56;;;;;;;5.30;4.90;;;;;;;18.29;46.50;100011.22;5012410;28;20205;-67
2021/01/01 02:36:22;;;;;;;5.50;5.00;;;;;;;18.29;46.74;100010.38;5026233;28;20205;-64
2021/01/01 02:38:48;;;;;;;5.10;4.70;;;;;;;18.29;46.62;100019.34;5032123;28;20204;-64
2021/01/01 02:41:14;;;;;;;5.30;4.90;;;;;;;18.29;46.57;100016.66;5014888;28;20213;-63
2021/01/01 02:43:40;;;;;;;5.23;4.83;;;;;;;18.28;46.31;100016.84;4998758;28;20192;-63
2021/01/01 02:46:06;;;;;;;4.97;4.60;;;;;;;18.25;46.84;100018.03;4998333;28;20243;-68
2021/01/01 02:48:33;;;;;;;5.10;4.70;;;;;;;18.23;46.46;100020.09;5031846;28;20197;-66
2021/01/01 02:50:59;;;;;;;5.50;5.00;;;;;;;18.21;46.17;100022.13;5006954;28;20223;-67
2021/01/01 02:53:26;;;;;;;5.03;4.63;;;;;;;18.19;46.70;100020.63;5014444;28;20270;-67
2021/01/01 02:55:53;;;;;;;5.00;4.60;;;;;;;18.17;46.66;100019.97;5009503;28;20205;-68
2021/01/01 02:58:19;;;;;;;5.10;4.70;;;;;;;18.10;46.80;100015.28;5031785;28;20185;-64
2021/01/01 03:00:48;;;;;;;5.13;4.73;;;;;;;18.09;46.65;100024.44;5011466;28;20217;-64
2021/01/01 03:03:14;;;;;;;5.20;4.80;;;;;;;18.04;46.77;100018.72;4998109;28;20196;-67
2021/01/01 03:05:40;;;;;;;5.20;4.80;;;;;;;18.00;46.73;100021.97;5031641;28;20204;-67
2021/01/01 03:08:06;;;;;;;5.20;4.80;;;;;;;17.97;46.47;100025.88;5031709;28;20189;-67
2021/01/01 03:10:32;;;;;;;5.00;4.60;;;;;;;17.98;46.83;100027.59;4994083;28;20192;-67
2021/01/01 03:12:59;;;;;;;5.40;5.00;;;;;;;18.02;46.47;100031.59;5031538;28;20189;-65
2021/01/01 03:15:25;;;;;;;5.23;4.83;;;;;;;18.06;46.83;100030.22;4981896;28;20235;-67
2021/01/01 03:17:51;;;;;;;5.43;5.00;;;;;;;18.11;46.24;100026.94;5014356;28;20184;-67
2021/01/01 03:20:17;;;;;;;4.97;4.57;;;;;;;18.17;46.38;100022.66;5014185;28;20217;-67
2021/01/01 03:22:43;;;;;;;5.10;4.70;;;;;;;18.25;46.36;100033.44;5031538;28;20293;-67
2021/01/01 03:25:09;;;;;;;5.23;4.83;;;;;;;18.32;46.53;100029.81;5031463;28;20192;-67
2021/01/01 03:27:35;;;;;;;4.97;4.57;;;;;;;18.40;46.11;100031.59;4997626;28;20192;-67
2021/01/01 03:30:02;;;;;;;5.00;4.60;;;;;;;18.49;46.15;100032.38;5014198;28;20194;-67
2021/01/01 03:32:28;;;;;;;5.07;4.67;;;;;;;18.58;46.25;100037.53;5031339;28;20693;-67
2021/01/01 03:34:55;;;;;;;4.53;4.23;;;;;;;18.66;46.42;100032.06;5014124;28;20203;-64
2021/01/01 03:37:21;;;;;;;4.90;4.50;;;;;;;18.74;46.41;100028.44;4997744;28;20209;-64
2021/01/01 03:39:47;;;;;;;4.97;4.57;;;;;;;18.81;46.27;100029.34;5014001;28;20204;-64
2021/01/01 03:42:13;;;;;;;5.00;4.60;;;;;;;18.88;46.11;100034.88;5031498;28;20196;-65
2021/01/01 03:44:39;;;;;;;5.00;4.60;;;;;;;18.91;45.82;100032.63;5013972;28;20192;-65
2021/01/01 03:47:06;;;;;;;4.47;4.17;;;;;;;18.93;46.06;100027.88;5031309;28;20298;-67
2021/01/01 03:49:32;;;;;;;4.83;4.53;;;;;;;18.94;45.90;100034.16;5031096;28;20808;-67
2021/01/01 03:51:58;;;;;;;5.00;4.60;;;;;;;18.95;45.64;100033.13;5031352;28;20184;-67
2021/01/01 03:54:24;;;;;;;5.80;5.30;;;;;;;18.93;45.83;100024.31;5031277;28;20188;-68
2021/01/01 03:56:50;;;;;;;4.60;4.30;;;;;;;18.90;45.55;100032.81;4997306;28;20208;-67
2021/01/01 03:59:16;;;;;;;5.10;4.70;;;;;;;18.87;45.48;100035.91;5031036;28;20193;-67
2021/01/01 04:01:42;;;;;;;5.10;4.70;;;;;;;18.83;45.90;100031.88;5031711;28;20748;-67
2021/01/01 04:04:08;;;;;;;5.57;5.17;;;;;;;18.78;45.71;100034.31;5035056;28;20180;-67
2021/01/01 04:06:34;;;;;;;5.30;4.90;;;;;;;18.69;45.83;100031.72;5017870;28;20201;-67
2021/01/01 04:09:00;;;;;;;5.17;4.77;;;;;;;18.63;46.11;100026.16;5017722;28;20185;-67
2021/01/01 04:11:26;;;;;;;5.30;4.90;;;;;;;18.56;46.07;100026.03;5035068;28;20196;-64
2021/01/01 04:13:52;;;;;;;5.37;4.97;;;;;;;18.50;46.17;100032.19;5034728;28;20189;-64
2021/01/01 04:16:18;;;;;;;5.53;5.03;;;;;;;18.44;45.81;100032.91;5034806;28;20672;-64
2021/01/01 04:18:44;;;;;;;5.27;4.87;;;;;;;18.36;46.34;100030.28;5034691;28;20262;-64
2021/01/01 04:21:10;;;;;;;5.10;4.70;;;;;;;18.27;46.10;100032.25;5034868;28;20217;-65
2021/01/01 04:23:37;;;;;;;5.63;5.23;;;;;;;18.22;46.15;100031.13;5017476;28;20535;-64
2021/01/01 04:26:03;;;;;;;5.17;4.77;;;;;;;18.10;46.34;100031.53;5034307;28;20208;-66
2021/01/01 04:28:29;;;;;;;5.77;5.27;;;;;;;18.09;46.33;100034.41;5034681;28;20196;-62
2021/01/01 04:30:56;;;;;;;5.57;5.07;;;;;;;18.12;46.19;100038.63;5017236;28;20181;-64
2021/01/01 04:33:22;;;;;;;5.63;5.20;;;;;;;18.13;46.36;100037.59;5017374;28;20197;-64
2021/01/01 04:35:48;;;;;;;5.53;5.10;;;;;;;18.14;46.39;100033.88;5000800;28;20212;-67
2021/01/01 04:38:14;;;;;;;5.47;4.97;;;;;;;18.15;46.38;100038.25;5017376;28;20195;-68
2021/01/01 04:40:40;;;;;;;6.00;5.50;;;;;;;18.17;46.36;100036.22;5017053;28;20312;-66
2021/01/01 04:43:07;;;;;;;5.53;5.13;;;;;;;18.16;46.05;100040.78;5000902;28;20255;-64
2021/01/01 04:45:33;;;;;;;5.37;4.97;;;;;;;18.16;46.29;100039.94;5000748;28;20629;-64
2021/01/01 04:47:59;;;;;;;5.27;4.83;;;;;;;18.20;46.19;100042.09;5016786;28;20219;-65
2021/01/01 04:50:25;;;;;;;5.90;5.40;;;;;;;18.24;46.30;100042.59;4984402;28;20629;-65
2021/01/01 04:52:51;;;;;;;5.33;4.93;;;;;;;18.29;46.55;100041.03;5016905;28;20197;-64
2021/01/01 04:55:17;;;;;;;5.33;4.93;;;;;;;18.41;46.77;100049.53;4984131;28;20197;-67
2021/01/01 04:57:43;;;;;;;5.50;5.03;;;;;;;18.51;46.03;100044.72;5000211;28;20211;-67
2021/01/01 05:00:10;;;;;;;5.57;5.17;;;;;;;18.61;46.10;100049.88;5016746;28;20221;-66
2021/01/01 05:02:36;;;;;;;5.47;5.03;;;;;;;18.67;46.04;100049.16;5000378;28;20582;-66
2021/01/01 05:05:02;;;;;;;5.07;4.67;;;;;;;18.70;46.19;100055.06;5034147;28;20187;-63
2021/01/01 05:07:28;;;;;;;5.73;5.27;;;;;;;18.75;45.67;100048.25;5034046;28;20212;-67
2021/01/01 05:09:54;;;;;;;5.80;5.30;;;;;;;18.77;45.87;100051.63;5000181;28;20181;-65
2021/01/01 05:12:20;;;;;;;5.30;4.90;;;;;;;18.76;45.88;100056.19;4999988;28;20188;-64
2021/01/01 05:14:46;;;;;;;5.30;4.90;;;;;;;18.73;45.71;100050.31;5000107;28;20237;-64
2021/01/01 05:17:13;;;;;;;5.93;5.43;;;;;;;18.74;45.91;100055.53;5016291;28;20224;-65
2021/01/01 05:19:40;;;;;;;6.00;5.50;;;;;;;18.72;45.51;100063.03;5033714;28;20211;-64
2021/01/01 05:22:07;;;;;;;5.90;5.40;;;;;;;18.67;45.81;100054.56;5016259;28;20184;-67
2021/01/01 05:24:43;;;;;;;5.93;5.43;;;;;;;18.61;45.54;100058.84;5033744;28;20181;-64
2021/01/01 05:27:10;;;;;;;6.10;5.23;;;;;;;18.53;46.02;100056.22;4999623;28;20262;-64
2021/01/01 05:29:39;;;;;;;5.73;5.33;;;;;;;18.47;45.59;100056.13;5016118;28;20280;-64
2021/01/01 05:32:09;;;;;;;5.93;5.43;;;;;;;18.44;46.02;100059.16;4999841;28;20651;-65
2021/01/01 05:34:42;;;;;;;6.00;5.53;;;;;;;18.36;45.96;100062.81;4983846;28;20216;-64
2021/01/01 05:37:08;;;;;;;5.67;5.27;;;;;;;18.28;46.07;100065.59;5016004;28;20250;-64
2021/01/01 05:39:35;;;;;;;5.90;5.40;;;;;;;18.20;46.43;100068.34;5016140;28;20267;-64
2021/01/01 05:42:01;;;;;;;6.10;5.60;;;;;;;18.16;46.45;100067.03;5015758;28;20690;-64
2021/01/01 05:44:28;;;;;;;5.90;5.40;;;;;;;18.10;46.11;100074.03;4999624;28;20189;-64
2021/01/01 05:46:56;;;;;;;6.50;6.00;;;;;;;18.06;46.46;100081.66;5033264;28;20208;-64
2021/01/01 05:49:23;;;;;;;6.20;5.70;;;;;;;18.09;45.96;100081.31;5033172;28;20620;-67
2021/01/01 05:52:18;;;;;;;6.60;6.00;;;;;;;18.13;46.05;100086.34;5033160;28;20180;-68
2021/01/01 05:55:00;;;;;;;6.60;6.00;;;;;;;18.12;46.36;100085.50;5015779;28;20219;-68
2021/01/01 05:57:39;;;;;;;6.13;5.63;;;;;;;18.12;46.60;100093.63;5016699;28;20845;-68
2021/01/01 06:00:09;;;;;;;6.73;6.17;;;;;;;18.18;46.37;100098.31;4999208;28;20420;-68
2021/01/01 06:02:38;;;;;;;6.20;5.70;;;;;;;18.28;46.17;100098.09;5015732;28;20657;-67
2021/01/01 06:05:06;;;;;;;6.70;6.10;;;;;;;18.37;46.42;100105.97;5015834;28;20612;-67
2021/01/01 06:07:32;;;;;;;6.30;5.80;;;;;;;18.48;46.12;100107.44;4999430;28;20239;-67
2021/01/01 06:09:58;;;;;;;6.67;6.17;;;;;;;18.58;45.86;100108.00;4999311;28;20525;-67
2021/01/01 06:12:28;;;;;;;6.53;6.03;;;;;;;18.66;45.76;100101.69;4999358;28;20270;-68
2021/01/01 06:14:59;;;;;;;6.60;6.00;;;;;;;18.73;45.89;100109.94;4982866;28;20250;-65
2021/01/01 06:17:31;;;;;;;6.40;5.90;;;;;;;18.78;45.83;100107.53;5015336;28;20695;-65
2021/01/01 06:19:57;;;;;;;6.40;5.90;;;;;;;18.81;46.02;100109.84;4999722;28;20339;-65
2021/01/01 06:22:25;;;;;;;6.30;5.80;;;;;;;18.84;45.57;100117.63;5032650;28;20267;-66
2021/01/01 06:24:54;;;;;;;6.27;5.77;;;;;;;18.84;45.79;100117.63;4998328;28;20185;-66
2021/01/01 06:27:21;;;;;;;6.83;6.33;;;;;;;18.84;45.60;100123.88;5014609;28;20204;-65
2021/01/01 06:29:49;;;;;;;6.73;6.20;;;;;;;18.80;45.63;100124.44;4998745;28;20215;-66
2021/01/01 06:32:17;;;;;;;6.50;6.00;;;;;;;18.75;45.55;100121.44;4998873;28;20198;-66
2021/01/01 06:34:43;;;;;;;6.80;6.30;;;;;;;18.71;45.71;100120.97;5014855;28;20185;-64
2021/01/01 06:37:56;;;;;;;6.97;6.37;;;;;;;18.67;45.59;100134.03;5014686;28;20208;-68
2021/01/01 06:40:22;;;;;;;6.30;5.80;;;;;;;18.61;45.77;100140.16;5031705;28;20692;-64
2021/01/01 06:42:58;;;;;;;6.47;5.97;;;;;;;18.55;45.83;100153.59;5032281;28;20185;-63
2021/01/01 06:45:31;;;;;;;6.80;6.20;;;;;;;18.48;46.23;100156.19;5014725;28;20205;-63
2021/01/01 06:47:57;;;;;;;7.20;6.60;;;;;;;18.41;45.85;100152.50;5033211;28;20181;-64
2021/01/01 06:50:27;;;;;;;7.20;6.60;;;;;;;18.33;46.07;100152.56;5033153;28;20180;-63
2021/01/01 06:53:06;;;;;;;7.30;6.70;;;;;;;18.26;45.96;100160.59;4999536;28;20589;-64
2021/01/01 06:55:42;;;;;;;7.17;6.57;;;;;;;18.20;46.48;100155.03;5027971;28;20729;-65
2021/01/01 06:58:30;;;;;;;6.97;6.37;;;;;;;18.12;45.97;100155.09;5007115;28;20185;-66
2021/01/01 07:00:56;;;;;;;6.70;6.20;;;;;;;18.06;45.99;100162.06;5012664;28;20294;-66
2021/01/01 07:03:38;;;;;;;7.37;6.77;;;;;;;18.02;46.41;100164.28;5032107;28;20173;-66
2021/01/01 07:06:04;;;;;;;7.40;6.70;;;;;;;18.00;46.58;100168.19;5031562;28;20189;-66
2021/01/01 07:08:42;;;;;;;7.10;6.50;;;;;;;18.04;46.52;100161.41;5031825;28;20259;-66
2021/01/01 07:11:08;;;;;;;7.60;6.93;;;;;;;18.04;46.47;100164.97;5031518;28;20184;-66
2021/01/01 07:13:48;;;;;;;7.37;6.77;;;;;;;18.05;46.35;100169.34;5030573;28;20576;-66
2021/01/01 07:16:15;;;;;;;7.40;6.80;;;;;;;18.06;46.59;100171.03;5031539;28;20366;-66
2021/01/01 07:18:41;;;;;;;7.57;6.97;;;;;;;18.07;46.34;100178.13;5031634;28;20212;-66
2021/01/01 07:21:08;;;;;;;7.47;6.87;;;;;;;18.05;46.08;100176.63;5014281;28;20211;-66
2021/01/01 07:23:34;;;;;;;7.63;7.03;;;;;;;18.07;46.33;100183.56;5031950;28;20624;-63
2021/01/01 07:26:02;;;;;;;7.63;7.03;;;;;;;18.08;46.08;100170.84;5014401;28;20197;-67
2021/01/01 07:28:28;;;;;;;7.63;6.93;;;;;;;18.08;46.25;100179.81;5032171;28;20259;-67
2021/01/01 07:30:54;;;;;;;7.47;6.87;;;;;;;18.10;46.50;100180.50;5031731;28;20185;-68
2021/01/01 07:33:22;;;;;;;7.27;6.67;;;;;;;18.16;46.20;100186.19;5014301;28;20204;-68
2021/01/01 07:35:55;;;;;;;8.00;7.30;;;;;;;18.24;46.45;100188.88;4997247;28;20542;-67
2021/01/01 07:38:21;;;;;;;8.13;7.43;;;;;;;18.32;46.42;100194.25;5013697;28;20184;-69
2021/01/01 07:40:48;;;;;;;7.30;6.70;;;;;;;18.41;46.23;100195.88;5031317;28;20205;-68
2021/01/01 07:43:14;;;;;;;7.80;7.20;;;;;;;18.50;46.25;100189.38;5013895;28;20246;-68
2021/01/01 07:45:40;;;;;;;7.97;7.27;;;;;;;18.60;46.19;100184.56;5031275;28;20549;-68
2021/01/01 07:48:06;;;;;;;7.00;6.40;;;;;;;18.68;46.11;100194.50;5031202;28;20220;-68
2021/01/01 07:50:33;;;;;;;8.03;7.33;;;;;;;18.75;45.82;100197.34;5031414;28;20332;-67
2021/01/01 07:53:06;;;;;;;7.60;7.00;;;;;;;18.80;46.03;100197.66;5031115;28;20185;-68
2021/01/01 07:55:33;;;;;;;7.30;6.70;;;;;;;18.83;45.96;100191.84;5031043;28;20205;-68
2021/01/01 07:58:09;;;;;;;7.27;6.67;;;;;;;18.84;45.87;100196.25;5013688;28;20197;-68
2021/01/01 08:00:37;;;;;;;7.57;6.90;;;;;;;18.85;45.73;100196.06;5010936;28;20291;-68
2021/01/01 08:03:03;;;;;;;7.80;7.20;;;;;;;18.82;45.86;100193.72;5013731;28;20189;-67
2021/01/01 08:05:29;;;;;;;7.37;6.77;;;;;;;18.80;45.73;100192.22;5031123;28;20313;-66
2021/01/01 08:08:09;;;;;;;7.90;7.20;;;;;;;18.80;45.55;100194.94;5013861;28;20185;-66
2021/01/01 08:10:35;;;;;;;7.67;7.07;;;;;;;18.77;45.54;100206.16;5015918;28;20177;-66
2021/01/01 08:13:02;;;;;;;7.53;6.93;;;;;;;18.73;45.55;100204.84;5031075;28;20636;-65
2021/01/01 08:15:28;;;;;;;8.13;7.43;;;;;;;18.67;45.53;100211.81;5030968;28;20251;-67
2021/01/01 08:17:55;;;;;;;7.70;7.10;;;;;;;18.61;45.84;100205.22;5030942;28;20205;-66
2021/01/01 08:20:21;;;;;;;8.00;7.30;;;;;;;18.53;45.98;100212.56;5030878;28;20649;-66
2021/01/01 08:22:50;;;;;;;7.97;7.27;;;;;;;18.46;45.82;100220.59;5013555;28;20181;-70
2021/01/01 08:25:17;;;;;;;8.10;7.40;;;;;;;18.39;45.98;100219.59;4997204;28;20193;-67
2021/01/01 08:27:44;;;;;;;8.03;7.33;;;;;;;18.31;46.18;100216.94;4996984;28;20196;-64
2021/01/01 08:30:11;;;;;;;8.30;7.60;;;;;;;18.23;46.16;100217.00;4997352;28;20266;-65
2021/01/01 08:32:37;;;;;;;8.47;7.70;;;;;;;18.19;45.96;100218.34;4997342;28;20221;-67
2021/01/01 08:35:03;;;;;;;8.80;8.00;;;;;;;18.22;45.86;100224.28;5013713;28;20204;-67
2021/01/01 08:37:29;;;;;;;7.80;7.17;;;;;;;18.25;46.25;100223.91;5013517;28;20660;-67
2021/01/01 08:40:06;;;;;;;8.83;8.10;;;;;;;18.25;46.13;100226.63;4996957;28;20195;-67
2021/01/01 08:42:34;;;;;;;7.90;7.30;;;;;;;18.26;46.28;100227.47;5030981;28;20185;-67
2021/01/01 08:45:04;;;;;;;8.50;7.77;;;;;;;18.25;46.33;100232.06;5013502;28;20192;-63
2021/01/01 08:47:40;;;;;;;8.37;7.63;;;;;;;18.28;46.10;100236.25;5013587;28;20691;-67
2021/01/01 08:50:27;;;;;;;8.33;7.63;;;;;;;18.30;46.24;100234.22;5034115;28;20266;-68
2021/01/01 08:53:03;;;;;;;8.13;7.43;;;;;;;18.39;45.98;100246.69;5034668;28;20185;-68
2021/01/01 08:55:29;;;;;;;7.90;7.23;;;;;;;18.47;46.17;100237.69;5033872;28;20486;-68
2021/01/01 08:58:08;;;;;;;8.10;7.40;;;;;;;18.58;46.21;100240.81;5034016;28;20295;-68
2021/01/01 09:00:35;;;;;;;7.43;6.83;;;;;;;18.67;45.92;100244.34;5033793;28;20641;-66
2021/01/01 09:03:02;;;;;;;8.07;7.37;;;;;;;18.75;45.64;100240.75;5016636;28;20617;-65
2021/01/01 09:05:28;;;;;;;7.60;7.00;;;;;;;18.81;45.55;100242.72;5000559;28;20291;-65
2021/01/01 09:08:10;;;;;;;7.50;6.90;;;;;;;18.84;45.50;100240.47;5000361;28;20195;-68
2021/01/01 09:10:37;;;;;;;7.87;7.17;;;;;;;18.89;45.72;100242.63;5033947;28;20189;-65
2021/01/01 09:13:16;;;;;;;8.23;7.53;;;;;;;18.88;45.51;100252.66;5016454;28;20275;-64
2021/01/01 09:15:42;;;;;;;8.03;7.37;;;;;;;18.85;45.67;100244.88;5016433;28;20295;-64
2021/01/01 09:18:08;;;;;;;8.03;7.33;;;;;;;18.85;45.72;100254.88;5000195;28;20188;-64
2021/01/01 09:20:35;;;;;;;8.30;7.60;;;;;;;18.81;45.76;100245.44;5033680;28;20278;-64
2021/01/01 09:23:04;;;;;;;8.50;7.80;;;;;;;18.80;45.40;100255.44;4983934;28;20193;-65
2021/01/01 09:25:31;;;;;;;8.27;7.57;;;;;;;18.73;45.70;100257.19;5033548;28;20244;-63
2021/01/01 09:27:57;;;;;;;8.13;7.43;;;;;;;18.67;45.63;100255.16;5016178;28;20200;-63
2021/01/01 09:30:24;;;;;;;8.13;7.43;;;;;;;18.61;45.49;100262.13;5033624;28;20528;-63
2021/01/01 09:32:55;;;;;;;7.93;7.23;;;;;;;18.55;45.61;100262.00;4999985;28;20185;-63
2021/01/01 09:35:21;;;;;;;7.97;7.30;;;;;;;18.48;45.60;100267.31;5016311;28;20181;-67
2021/01/01 09:37:56;;;;;;;8.50;7.77;;;;;;;18.41;45.83;100260.91;5032971;28;20744;-67
2021/01/01 09:40:24;;;;;;;7.80;7.20;;;;;;;18.34;45.85;100276.19;5015640;28;20204;-67
2021/01/01 09:42:50;;;;;;;8.17;7.47;;;;;;;18.26;46.17;100268.09;4983716;28;20240;-66
2021/01/01 09:45:17;;;;;;;8.63;7.83;;;;;;;18.19;45.88;100267.94;5033222;28;20196;-63
2021/01/01 09:47:43;;;;;;;7.77;7.17;;;;;;;18.13;45.94;100268.66;5015791;28;20239;-66
2021/01/01 09:50:10;;;;;;;8.43;7.73;;;;;;;18.10;46.28;100269.88;5015930;28;20757;-67
2021/01/01 09:52:36;;;;;;;8.13;7.50;;;;;;;18.14;46.11;100269.50;5033380;28;20278;-66
2021/01/01 09:55:03;;;;;;;7.67;6.97;;;;;;;18.17;45.72;100269.16;5033047;28;20188;-67
2021/01/01 09:57:29;;;;;;;8.03;7.33;;;;;;;18.17;46.12;100271.84;5032967;28;20290;-64
2021/01/01 09:59:56;;;;;;;7.63;7.03;;;;;;;18.17;45.93;100271.84;5031850;28;20641;-66
2021/01/01 10:02:22;;;;;;;8.07;7.40;;;;;;;18.17;46.37;100280.81;4999210;28;20227;-66
2021/01/01 10:04:48;;;;;;;8.03;7.33;;;;;;;18.19;46.21;100280.66;5015481;28;20185;-66
2021/01/01 10:07:15;;;;;;;7.03;6.43;;;;;;;18.21;46.05;100282.16;4999322;28;20688;-63
2021/01/01 10:09:45;;;;;;;8.17;7.47;;;;;;;18.26;46.36;100281.66;5015650;28;20192;-65
2021/01/01 10:12:16;;;;;;;7.50;6.90;;;;;;;18.34;46.50;100287.03;5015332;28;20185;-65
2021/01/01 10:14:42;;;;;;;7.40;6.80;;;;;;;18.45;46.30;100292.03;4999197;28;20204;-63
2021/01/01 10:17:08;;;;;;;7.90;7.20;;;;;;;18.53;46.11;100286.59;5015352;28;20216;-70
2021/01/01 10:19:34;;;;;;;7.67;6.97;;;;;;;18.64;46.23;100286.19;5015235;28;20189;-62
2021/01/01 10:22:00;;;;;;;7.67;6.97;;;;;;;18.70;46.22;100288.22;5032679;28;20844;-67
2021/01/01 10:24:26;;;;;;;8.33;7.53;;;;;;;18.75;46.03;100287.66;4998877;28;20189;-67
2021/01/01 10:26:55;;;;;;;8.20;7.43;;;;;;;18.80;46.01;100297.97;5032120;28;20201;-68
2021/01/01 10:29:21;;;;;;;8.07;7.27;;;;;;;18.84;46.15;100293.88;5015066;28;20223;-64
2021/01/01 10:31:48;;;;;;;7.50;6.87;;;;;;;18.87;46.32;100301.66;4998660;28;20181;-64
2021/01/01 10:34:14;;;;;;;8.63;7.33;;;;;;;18.84;46.36;100293.88;4998827;28;20660;-65
2021/01/01 10:36:40;;;;;;;9.13;7.50;;;;;;;18.83;46.52;100303.03;5014933;28;20558;-67
2021/01/01 10:39:09;;;;;;;8.80;7.90;;;;;;;18.83;46.91;100297.59;5014925;28;20189;-67
2021/01/01 10:41:36;;;;;;;9.97;7.40;;;;;;;18.80;47.08;100287.13;4998219;28;20713;-68
2021/01/01 10:44:03;;;;;;;11.70;6.97;;;;;;;18.78;46.99;100294.59;5014975;28;20211;-67
2021/01/01 10:46:29;;;;;;;11.60;7.37;;;;;;;18.76;46.96;100296.66;4998449;28;20555;-67
2021/01/01 10:48:55;;;;;;;10.07;7.10;;;;;;;18.69;47.45;100291.06;4981965;28;20564;-66
2021/01/01 10:51:22;;;;;;;7.77;7.07;;;;;;;18.65;47.28;100298.72;5014513;28;20203;-64
2021/01/01 10:53:48;;;;;;;7.43;6.70;;;;;;;18.64;47.51;100294.34;4998182;28;20589;-69
2021/01/01 10:56:23;;;;;;;9.20;6.67;;;;;;;18.62;47.53;100292.78;4981634;28;20641;-63
2021/01/01 10:58:49;;;;;;;7.87;6.97;;;;;;;18.62;47.67;100290.97;5014535;28;20542;-65
2021/01/01 11:01:22;;;;;;;8.77;6.63;;;;;;;18.57;48.26;100296.03;4982122;28;20220;-62
2021/01/01 11:03:49;;;;;;;8.30;7.33;;;;;;;18.59;48.45;100296.72;5014440;28;20196;-63
2021/01/01 11:06:15;;;;;;;7.80;7.10;;;;;;;18.51;47.67;100299.47;4998113;28;20212;-68
2021/01/01 11:08:42;;;;;;;8.90;7.13;;;;;;;18.44;47.98;100298.47;5014578;28;20193;-68
2021/01/01 11:11:09;;;;;;;10.57;7.23;;;;;;;18.34;47.47;100298.69;5014485;28;20186;-69
2021/01/01 11:13:38;;;;;;;9.83;7.30;;;;;;;18.29;47.74;100294.84;5014209;28;20629;-68
2021/01/01 12:20:21;;;;;;;7.00;6.30;;;;;;;18.35;46.89;100284.13;4998786;28;20625;-62
2021/01/01 12:23:01;;;;;;;9.80;6.27;;;;;;;18.28;46.65;100283.16;5000226;28;20224;-62
2021/01/01 12:25:27;;;;;;;6.30;5.80;;;;;;;18.20;47.06;100283.19;5001531;28;20205;-62
2021/01/01 12:27:56;;;;;;;6.80;6.10;;;;;;;18.13;47.14;100290.34;4982151;28;20194;-62
2021/01/01 12:30:24;;;;;;;9.13;5.90;;;;;;;18.09;47.23;100284.44;4982483;28;20186;-62
2021/01/01 12:32:51;;;;;;;6.33;5.73;;;;;;;18.01;46.79;100286.34;4982684;28;20193;-68
2021/01/01 12:35:17;;;;;;;6.70;6.13;;;;;;;17.97;47.28;100288.50;4998548;28;20823;-67